Terminal Aerodrome Forecast
Issued by NWS Corpus Christi, TX

Home | Current Version | Previous Version | Text Only | Print | Product List | Glossary On
Versions: 1 2 3 4 5 6 7 8 9 10 11 12 13 14
000
FTUS44 KCRP 290520
TAFCRP
TAF
KCRP 290520Z 2906/3006 14011KT P6SM VCSH FEW017 SCT028 BKN250
      TEMPO 2908/2912 VRB23G33KT 2SM TSRA OVC015CB
     FM291200 16012KT P6SM VCTS SCT018CB BKN025
     FM291500 16015G25KT P6SM VCSH SCT030 BKN035
     FM291900 14018G28KT P6SM SCT025 BKN150
     FM300400 15009KT P6SM SCT017 BKN250=

USA.gov is the U.S. government's official web portal to all federal, state and local government web resources and services.